sensor_id;sensor_type;location;lat;lon;timestamp;pressure;altitude;pressure_sealevel;temperature
71807;BMP280;59655;42.590;23.364;2022-08-04T00:02:26;91821.03;;;19.36
71807;BMP280;59655;42.590;23.364;2022-08-04T00:05:22;91822.47;;;19.38
71807;BMP280;59655;42.590;23.364;2022-08-04T00:10:43;91814.84;;;19.34
71807;BMP280;59655;42.590;23.364;2022-08-04T00:13:12;91822.59;;;19.28
71807;BMP280;59655;42.590;23.364;2022-08-04T00:15:38;91819.31;;;19.29
71807;BMP280;59655;42.590;23.364;2022-08-04T00:18:06;91815.09;;;19.26
71807;BMP280;59655;42.590;23.364;2022-08-04T00:20:36;91819.31;;;19.29
71807;BMP280;59655;42.590;23.364;2022-08-04T00:23:04;91814.50;;;19.28
71807;BMP280;59655;42.590;23.364;2022-08-04T00:25:30;91814.28;;;19.24
71807;BMP280;59655;42.590;23.364;2022-08-04T00:27:55;91811.94;;;19.18
71807;BMP280;59655;42.590;23.364;2022-08-04T00:30:21;91811.00;;;19.13
71807;BMP280;59655;42.590;23.364;2022-08-04T00:32:47;91813.34;;;19.07
71807;BMP280;59655;42.590;23.364;2022-08-04T00:35:13;91812.06;;;19.08
71807;BMP280;59655;42.590;23.364;2022-08-04T00:37:40;91811.94;;;19.06
71807;BMP280;59655;42.590;23.364;2022-08-04T00:40:21;91801.06;;;19.04
71807;BMP280;59655;42.590;23.364;2022-08-04T00:42:50;91806.44;;;19.04
71807;BMP280;59655;42.590;23.364;2022-08-04T01:07:27;91814.97;;;19.01
71807;BMP280;59655;42.590;23.364;2022-08-04T01:15:39;91829.47;;;18.96
71807;BMP280;59655;42.590;23.364;2022-08-04T01:18:26;91825.63;;;18.87
71807;BMP280;59655;42.590;23.364;2022-08-04T01:26:49;91815.44;;;18.97
71807;BMP280;59655;42.590;23.364;2022-08-04T01:29:20;91809.94;;;18.95
71807;BMP280;59655;42.590;23.364;2022-08-04T01:32:06;91814.53;;;18.93
71807;BMP280;59655;42.590;23.364;2022-08-04T01:34:46;91811.13;;;18.92
71807;BMP280;59655;42.590;23.364;2022-08-04T01:40:04;91809.16;;;18.93
71807;BMP280;59655;42.590;23.364;2022-08-04T01:42:32;91809.81;;;18.81
71807;BMP280;59655;42.590;23.364;2022-08-04T01:45:24;91811.78;;;18.81
71807;BMP280;59655;42.590;23.364;2022-08-04T01:47:54;91814.88;;;18.87
71807;BMP280;59655;42.590;23.364;2022-08-04T01:50:21;91807.59;;;18.89
71807;BMP280;59655;42.590;23.364;2022-08-04T01:52:47;91817.22;;;18.93
71807;BMP280;59655;42.590;23.364;2022-08-04T01:55:14;91821.19;;;18.92
71807;BMP280;59655;42.590;23.364;2022-08-04T01:57:41;91812.97;;;18.89
71807;BMP280;59655;42.590;23.364;2022-08-04T02:00:09;91805.97;;;18.84
71807;BMP280;59655;42.590;23.364;2022-08-04T02:02:35;91809.22;;;18.83
71807;BMP280;59655;42.590;23.364;2022-08-04T02:05:00;91805.03;;;18.80
71807;BMP280;59655;42.590;23.364;2022-08-04T02:10:42;91802.78;;;18.76
71807;BMP280;59655;42.590;23.364;2022-08-04T02:13:22;91805.47;;;18.76
71807;BMP280;59655;42.590;23.364;2022-08-04T02:15:58;91803.38;;;18.75
71807;BMP280;59655;42.590;23.364;2022-08-04T02:21:12;91808.28;;;18.78
71807;BMP280;59655;42.590;23.364;2022-08-04T02:23:40;91807.47;;;18.76
71807;BMP280;59655;42.590;23.364;2022-08-04T02:28:46;91806.41;;;18.69
71807;BMP280;59655;42.590;23.364;2022-08-04T02:33:45;91803.34;;;18.63
71807;BMP280;59655;42.590;23.364;2022-08-04T02:36:23;91798.81;;;18.65
71807;BMP280;59655;42.590;23.364;2022-08-04T02:39:02;91801.50;;;18.65
71807;BMP280;59655;42.590;23.364;2022-08-04T02:41:29;91801.13;;;18.59
71807;BMP280;59655;42.590;23.364;2022-08-04T02:43:57;91792.59;;;18.51
71807;BMP280;59655;42.590;23.364;2022-08-04T02:46:23;91799.63;;;18.56
71807;BMP280;59655;42.590;23.364;2022-08-04T02:48:51;91800.44;;;18.59
71807;BMP280;59655;42.590;23.364;2022-08-04T02:51:21;91803.59;;;18.55
71807;BMP280;59655;42.590;23.364;2022-08-04T02:53:50;91800.75;;;18.53
71807;BMP280;59655;42.590;23.364;2022-08-04T02:56:18;91802.75;;;18.53
71807;BMP280;59655;42.590;23.364;2022-08-04T02:58:45;91796.31;;;18.46
71807;BMP280;59655;42.590;23.364;2022-08-04T03:01:10;91796.44;;;18.48
71807;BMP280;59655;42.590;23.364;2022-08-04T03:03:39;91803.13;;;18.47
71807;BMP280;59655;42.590;23.364;2022-08-04T03:20:37;91818.00;;;18.38
71807;BMP280;59655;42.590;23.364;2022-08-04T03:37:10;91813.38;;;18.39
71807;BMP280;59655;42.590;23.364;2022-08-04T03:40:20;91813.00;;;18.33
71807;BMP280;59655;42.590;23.364;2022-08-04T03:46:32;91812.16;;;18.30
71807;BMP280;59655;42.590;23.364;2022-08-04T03:51:40;91809.47;;;18.30
71807;BMP280;59655;42.590;23.364;2022-08-04T04:13:26;91809.00;;;18.22
71807;BMP280;59655;42.590;23.364;2022-08-04T04:16:10;91812.38;;;18.23
71807;BMP280;59655;42.590;23.364;2022-08-04T04:27:17;91817.78;;;18.34
71807;BMP280;59655;42.590;23.364;2022-08-04T04:30:03;91817.66;;;18.32
71807;BMP280;59655;42.590;23.364;2022-08-04T04:32:36;91822.44;;;18.34
71807;BMP280;59655;42.590;23.364;2022-08-04T04:35:32;91824.25;;;18.41
71807;BMP280;59655;42.590;23.364;2022-08-04T04:46:42;91820.03;;;18.50
71807;BMP280;59655;42.590;23.364;2022-08-04T04:51:50;91816.00;;;18.60
71807;BMP280;59655;42.590;23.364;2022-08-04T04:54:44;91826.28;;;18.64
71807;BMP280;59655;42.590;23.364;2022-08-04T04:57:17;91821.72;;;18.67
71807;BMP280;59655;42.590;23.364;2022-08-04T04:59:51;91825.22;;;18.69
71807;BMP280;59655;42.590;23.364;2022-08-04T05:07:42;91823.72;;;18.78
71807;BMP280;59655;42.590;23.364;2022-08-04T05:15:41;91827.00;;;18.88
71807;BMP280;59655;42.590;23.364;2022-08-04T05:18:11;91830.16;;;18.96
71807;BMP280;59655;42.590;23.364;2022-08-04T05:20:41;91830.16;;;18.96
71807;BMP280;59655;42.590;23.364;2022-08-04T05:23:28;91832.28;;;18.98
71807;BMP280;59655;42.590;23.364;2022-08-04T05:25:59;91827.59;;;18.98
71807;BMP280;59655;42.590;23.364;2022-08-04T05:28:32;91825.06;;;19.00
71807;BMP280;59655;42.590;23.364;2022-08-04T05:31:10;91834.03;;;19.05
71807;BMP280;59655;42.590;23.364;2022-08-04T05:33:45;91830.44;;;19.12
71807;BMP280;59655;42.590;23.364;2022-08-04T05:36:17;91833.38;;;19.16
71807;BMP280;59655;42.590;23.364;2022-08-04T05:38:45;91833.94;;;19.15
71807;BMP280;59655;42.590;23.364;2022-08-04T05:41:13;91828.22;;;19.20
71807;BMP280;59655;42.590;23.364;2022-08-04T05:43:42;91833.94;;;19.26
71807;BMP280;59655;42.590;23.364;2022-08-04T05:46:09;91839.56;;;19.30
71807;BMP280;59655;42.590;23.364;2022-08-04T05:48:36;91837.81;;;19.35
71807;BMP280;59655;42.590;23.364;2022-08-04T05:51:02;91843.28;;;19.37
71807;BMP280;59655;42.590;23.364;2022-08-04T05:53:29;91835.91;;;19.38
71807;BMP280;59655;42.590;23.364;2022-08-04T05:55:56;91839.44;;;19.40
71807;BMP280;59655;42.590;23.364;2022-08-04T05:58:22;91834.16;;;19.42
71807;BMP280;59655;42.590;23.364;2022-08-04T06:00:48;91838.50;;;19.47
71807;BMP280;59655;42.590;23.364;2022-08-04T06:03:15;91850.19;;;19.52
71807;BMP280;59655;42.590;23.364;2022-08-04T06:05:42;91851.00;;;19.54
71807;BMP280;59655;42.590;23.364;2022-08-04T06:08:08;91853.25;;;19.58
71807;BMP280;59655;42.590;23.364;2022-08-04T06:10:36;91848.09;;;19.62
71807;BMP280;59655;42.590;23.364;2022-08-04T06:13:06;91847.59;;;19.66
71807;BMP280;59655;42.590;23.364;2022-08-04T06:15:38;91851.78;;;19.69
71807;BMP280;59655;42.590;23.364;2022-08-04T06:18:06;91851.31;;;19.72
71807;BMP280;59655;42.590;23.364;2022-08-04T06:20:34;91845.47;;;19.76
71807;BMP280;59655;42.590;23.364;2022-08-04T06:23:05;91848.97;;;19.78
71807;BMP280;59655;42.590;23.364;2022-08-04T06:25:38;91844.38;;;19.81
71807;BMP280;59655;42.590;23.364;2022-08-04T06:28:06;91849.31;;;19.85
71807;BMP280;59655;42.590;23.364;2022-08-04T06:30:33;91850.13;;;19.87
71807;BMP280;59655;42.590;23.364;2022-08-04T06:33:00;91850.47;;;19.93
71807;BMP280;59655;42.590;23.364;2022-08-04T06:35:27;91836.63;;;19.99
71807;BMP280;59655;42.590;23.364;2022-08-04T06:37:54;91844.22;;;20.02
71807;BMP280;59655;42.590;23.364;2022-08-04T06:40:21;91849.13;;;20.06
71807;BMP280;59655;42.590;23.364;2022-08-04T06:42:48;91854.03;;;20.10
71807;BMP280;59655;42.590;23.364;2022-08-04T06:45:14;91855.56;;;20.13
71807;BMP280;59655;42.590;23.364;2022-08-04T06:47:41;91857.75;;;20.16
71807;BMP280;59655;42.590;23.364;2022-08-04T06:50:08;91858.56;;;20.19
71807;BMP280;59655;42.590;23.364;2022-08-04T06:52:35;91866.06;;;20.20
71807;BMP280;59655;42.590;23.364;2022-08-04T06:55:00;91863.50;;;20.22
71807;BMP280;59655;42.590;23.364;2022-08-04T06:57:28;91861.00;;;20.26
71807;BMP280;59655;42.590;23.364;2022-08-04T07:00:06;91858.53;;;20.30
71807;BMP280;59655;42.590;23.364;2022-08-04T07:02:56;91870.81;;;20.34
71807;BMP280;59655;42.590;23.364;2022-08-04T07:05:22;91865.63;;;20.38
71807;BMP280;59655;42.590;23.364;2022-08-04T07:07:48;91865.19;;;20.41
71807;BMP280;59655;42.590;23.364;2022-08-04T07:10:14;91869.25;;;20.42
71807;BMP280;59655;42.590;23.364;2022-08-04T07:12:41;91867.28;;;20.43
71807;BMP280;59655;42.590;23.364;2022-08-04T07:15:07;91874.75;;;20.44
71807;BMP280;59655;42.590;23.364;2022-08-04T07:17:36;91875.56;;;20.47
71807;BMP280;59655;42.590;23.364;2022-08-04T07:20:05;91875.69;;;20.49
71807;BMP280;59655;42.590;23.364;2022-08-04T07:22:31;91865.69;;;20.51
71807;BMP280;59655;42.590;23.364;2022-08-04T07:24:57;91862.50;;;20.55
71807;BMP280;59655;42.590;23.364;2022-08-04T07:27:24;91853.34;;;20.60
71807;BMP280;59655;42.590;23.364;2022-08-04T07:29:50;91859.66;;;20.65
71807;BMP280;59655;42.590;23.364;2022-08-04T07:32:16;91861.16;;;20.68
71807;BMP280;59655;42.590;23.364;2022-08-04T07:34:43;91857.94;;;20.71
71807;BMP280;59655;42.590;23.364;2022-08-04T07:37:08;91860.19;;;20.75
71807;BMP280;59655;42.590;23.364;2022-08-04T07:39:34;91861.00;;;20.77
71807;BMP280;59655;42.590;23.364;2022-08-04T07:42:02;91861.78;;;20.80
71807;BMP280;59655;42.590;23.364;2022-08-04T07:44:29;91861.19;;;20.82
71807;BMP280;59655;42.590;23.364;2022-08-04T07:46:54;91864.22;;;20.88
71807;BMP280;59655;42.590;23.364;2022-08-04T07:49:20;91864.22;;;20.88
71807;BMP280;59655;42.590;23.364;2022-08-04T07:51:46;91863.63;;;20.89
71807;BMP280;59655;42.590;23.364;2022-08-04T07:54:12;91857.84;;;20.95
71807;BMP280;59655;42.590;23.364;2022-08-04T07:56:40;91866.03;;;20.97
71807;BMP280;59655;42.590;23.364;2022-08-04T07:59:06;91862.00;;;20.98
71807;BMP280;59655;42.590;23.364;2022-08-04T08:01:36;91863.63;;;21.03
71807;BMP280;59655;42.590;23.364;2022-08-04T08:04:04;91873.75;;;21.02
71807;BMP280;59655;42.590;23.364;2022-08-04T08:06:31;91870.53;;;21.06
71807;BMP280;59655;42.590;23.364;2022-08-04T08:09:00;91872.72;;;21.10
71807;BMP280;59655;42.590;23.364;2022-08-04T08:11:25;91870.94;;;21.14
71807;BMP280;59655;42.590;23.364;2022-08-04T08:13:51;91874.47;;;21.17
71807;BMP280;59655;42.590;23.364;2022-08-04T08:16:17;91878.16;;;21.23
71807;BMP280;59655;42.590;23.364;2022-08-04T08:18:45;91871.53;;;21.26
71807;BMP280;59655;42.590;23.364;2022-08-04T08:21:10;91873.09;;;21.30
71807;BMP280;59655;42.590;23.364;2022-08-04T08:23:36;91877.88;;;21.31
71807;BMP280;59655;42.590;23.364;2022-08-04T08:26:04;91877.25;;;21.33
71807;BMP280;59655;42.590;23.364;2022-08-04T08:28:30;91874.88;;;21.39
71807;BMP280;59655;42.590;23.364;2022-08-04T08:30:55;91879.06;;;21.42
71807;BMP280;59655;42.590;23.364;2022-08-04T08:33:21;91877.88;;;21.45
71807;BMP280;59655;42.590;23.364;2022-08-04T08:36:00;91874.97;;;21.41
71807;BMP280;59655;42.590;23.364;2022-08-04T08:38:46;91877.69;;;21.41
71807;BMP280;59655;42.590;23.364;2022-08-04T08:52:32;91876.78;;;21.64
71807;BMP280;59655;42.590;23.364;2022-08-04T08:58:09;91885.97;;;21.72
71807;BMP280;59655;42.590;23.364;2022-08-04T09:06:40;91881.13;;;21.98
71807;BMP280;59655;42.590;23.364;2022-08-04T09:14:47;91886.72;;;22.03
71807;BMP280;59655;42.590;23.364;2022-08-04T09:17:25;91884.09;;;22.05
71807;BMP280;59655;42.590;23.364;2022-08-04T09:20:14;91876.44;;;22.15
71807;BMP280;59655;42.590;23.364;2022-08-04T09:22:53;91873.56;;;22.11
71807;BMP280;59655;42.590;23.364;2022-08-04T09:25:26;91875.97;;;22.18
71807;BMP280;59655;42.590;23.364;2022-08-04T09:27:54;91878.13;;;22.06
71807;BMP280;59655;42.590;23.364;2022-08-04T09:30:22;91875.03;;;22.28
71807;BMP280;59655;42.590;23.364;2022-08-04T09:34:00;91876.16;;;22.38
71807;BMP280;59655;42.590;23.364;2022-08-04T09:36:08;91870.47;;;22.16
71807;BMP280;59655;42.590;23.364;2022-08-04T09:38:43;91873.53;;;22.24
71807;BMP280;59655;42.590;23.364;2022-08-04T09:41:37;91863.88;;;22.35
71807;BMP280;59655;42.590;23.364;2022-08-04T09:44:20;91871.84;;;22.17
71807;BMP280;59655;42.590;23.364;2022-08-04T09:46:57;91867.63;;;22.28
71807;BMP280;59655;42.590;23.364;2022-08-04T09:49:49;91873.59;;;22.27
71807;BMP280;59655;42.590;23.364;2022-08-04T09:59:17;91867.13;;;22.47
71807;BMP280;59655;42.590;23.364;2022-08-04T10:01:19;91877.19;;;22.45
71807;BMP280;59655;42.590;23.364;2022-08-04T10:03:58;91871.47;;;22.39
71807;BMP280;59655;42.590;23.364;2022-08-04T10:09:12;91866.94;;;22.43
71807;BMP280;59655;42.590;23.364;2022-08-04T10:20:45;91859.72;;;22.48
71807;BMP280;59655;42.590;23.364;2022-08-04T10:28:40;91862.09;;;22.56
71807;BMP280;59655;42.590;23.364;2022-08-04T10:31:09;91863.16;;;22.64
71807;BMP280;59655;42.590;23.364;2022-08-04T10:34:19;91859.22;;;22.67
71807;BMP280;59655;42.590;23.364;2022-08-04T10:39:30;91860.28;;;22.76
71807;BMP280;59655;42.590;23.364;2022-08-04T10:42:26;91855.22;;;22.84
71807;BMP280;59655;42.590;23.364;2022-08-04T10:45:18;91853.22;;;22.85
71807;BMP280;59655;42.590;23.364;2022-08-04T10:47:51;91849.38;;;22.90
71807;BMP280;59655;42.590;23.364;2022-08-04T10:50:20;91849.63;;;22.96
71807;BMP280;59655;42.590;23.364;2022-08-04T10:52:54;91849.53;;;22.94
71807;BMP280;59655;42.590;23.364;2022-08-04T10:55:31;91848.31;;;22.97
71807;BMP280;59655;42.590;23.364;2022-08-04T10:58:04;91843.69;;;23.00
71807;BMP280;59655;42.590;23.364;2022-08-04T11:00:32;91849.63;;;22.96
71807;BMP280;59655;42.590;23.364;2022-08-04T11:05:32;91847.91;;;23.03
71807;BMP280;59655;42.590;23.364;2022-08-04T11:08:06;91839.25;;;23.06
71807;BMP280;59655;42.590;23.364;2022-08-04T11:10:50;91838.53;;;23.06
71807;BMP280;59655;42.590;23.364;2022-08-04T11:13:21;91842.13;;;23.10
71807;BMP280;59655;42.590;23.364;2022-08-04T11:15:55;91832.06;;;23.13
71807;BMP280;59655;42.590;23.364;2022-08-04T11:18:33;91827.53;;;23.17
71807;BMP280;59655;42.590;23.364;2022-08-04T11:21:19;91833.44;;;23.30
71807;BMP280;59655;42.590;23.364;2022-08-04T11:24:02;91836.22;;;23.32
71807;BMP280;59655;42.590;23.364;2022-08-04T11:26:57;91830.97;;;23.36
71807;BMP280;59655;42.590;23.364;2022-08-04T11:29:36;91830.44;;;23.39
71807;BMP280;59655;42.590;23.364;2022-08-04T11:32:09;91834.53;;;23.40
71807;BMP280;59655;42.590;23.364;2022-08-04T11:34:37;91831.31;;;23.44
71807;BMP280;59655;42.590;23.364;2022-08-04T11:37:17;91827.38;;;23.47
71807;BMP280;59655;42.590;23.364;2022-08-04T11:39:50;91829.38;;;23.46
71807;BMP280;59655;42.590;23.364;2022-08-04T11:42:26;91827.94;;;23.61
71807;BMP280;59655;42.590;23.364;2022-08-04T11:45:02;91832.66;;;23.61
71807;BMP280;59655;42.590;23.364;2022-08-04T11:52:48;91819.94;;;23.81
71807;BMP280;59655;42.590;23.364;2022-08-04T11:55:17;91820.53;;;23.80
71807;BMP280;59655;42.590;23.364;2022-08-04T11:57:45;91818.28;;;23.92
71807;BMP280;59655;42.590;23.364;2022-08-04T12:00:13;91815.56;;;23.92
71807;BMP280;59655;42.590;23.364;2022-08-04T12:05:26;91811.41;;;24.07
71807;BMP280;59655;42.590;23.364;2022-08-04T12:08:25;91805.97;;;24.07
71807;BMP280;59655;42.590;23.364;2022-08-04T12:13:52;91810.09;;;24.08
71807;BMP280;59655;42.590;23.364;2022-08-04T12:16:35;91808.84;;;24.11
71807;BMP280;59655;42.590;23.364;2022-08-04T12:19:11;91808.44;;;24.18
71807;BMP280;59655;42.590;23.364;2022-08-04T12:21:42;91799.97;;;24.28
71807;BMP280;59655;42.590;23.364;2022-08-04T12:27:43;91815.66;;;24.50
71807;BMP280;59655;42.590;23.364;2022-08-04T12:30:09;91803.91;;;24.63
71807;BMP280;59655;42.590;23.364;2022-08-04T12:32:40;91807.28;;;24.81
71807;BMP280;59655;42.590;23.364;2022-08-04T12:35:22;91806.16;;;24.68
71807;BMP280;59655;42.590;23.364;2022-08-04T12:38:01;91805.47;;;24.88
71807;BMP280;59655;42.590;23.364;2022-08-04T12:41:03;91803.28;;;25.24
71807;BMP280;59655;42.590;23.364;2022-08-04T12:43:47;91800.97;;;25.36
71807;BMP280;59655;42.590;23.364;2022-08-04T12:46:23;91801.19;;;26.10
71807;BMP280;59655;42.590;23.364;2022-08-04T12:48:49;91793.13;;;26.36
71807;BMP280;59655;42.590;23.364;2022-08-04T12:51:16;91790.78;;;26.77
71807;BMP280;59655;42.590;23.364;2022-08-04T12:53:42;91791.88;;;26.41
71807;BMP280;59655;42.590;23.364;2022-08-04T12:56:10;91800.03;;;26.17
71807;BMP280;59655;42.590;23.364;2022-08-04T12:58:39;91799.44;;;26.19
71807;BMP280;59655;42.590;23.364;2022-08-04T13:01:07;91796.78;;;25.99
71807;BMP280;59655;42.590;23.364;2022-08-04T13:03:40;91796.63;;;25.93
71807;BMP280;59655;42.590;23.364;2022-08-04T13:06:07;91788.66;;;25.77
71807;BMP280;59655;42.590;23.364;2022-08-04T13:08:37;91794.09;;;25.77
71807;BMP280;59655;42.590;23.364;2022-08-04T13:11:03;91789.28;;;25.76
71807;BMP280;59655;42.590;23.364;2022-08-04T13:13:32;91787.22;;;25.52
71807;BMP280;59655;42.590;23.364;2022-08-04T13:16:02;91789.22;;;25.52
71807;BMP280;59655;42.590;23.364;2022-08-04T13:18:30;91785.63;;;25.45
71807;BMP280;59655;42.590;23.364;2022-08-04T13:21:08;91790.09;;;25.36
71807;BMP280;59655;42.590;23.364;2022-08-04T13:23:35;91792.19;;;25.38
71807;BMP280;59655;42.590;23.364;2022-08-04T13:26:02;91788.72;;;25.35
71807;BMP280;59655;42.590;23.364;2022-08-04T13:28:30;91784.28;;;25.24
71807;BMP280;59655;42.590;23.364;2022-08-04T13:30:59;91797.22;;;25.26
71807;BMP280;59655;42.590;23.364;2022-08-04T13:33:35;91792.44;;;26.14
71807;BMP280;59655;42.590;23.364;2022-08-04T13:36:03;91796.25;;;26.77
71807;BMP280;59655;42.590;23.364;2022-08-04T13:38:30;91793.22;;;27.18
71807;BMP280;59655;42.590;23.364;2022-08-04T13:41:01;91784.19;;;27.40
71807;BMP280;59655;42.590;23.364;2022-08-04T13:43:40;91782.53;;;27.57
71807;BMP280;59655;42.590;23.364;2022-08-04T13:46:08;91781.59;;;27.76
71807;BMP280;59655;42.590;23.364;2022-08-04T13:48:36;91779.28;;;27.94
71807;BMP280;59655;42.590;23.364;2022-08-04T13:51:06;91768.66;;;28.09
71807;BMP280;59655;42.590;23.364;2022-08-04T13:53:35;91780.94;;;28.08
71807;BMP280;59655;42.590;23.364;2022-08-04T13:56:01;91771.66;;;28.21
71807;BMP280;59655;42.590;23.364;2022-08-04T13:58:33;91767.47;;;28.18
71807;BMP280;59655;42.590;23.364;2022-08-04T14:01:04;91778.94;;;28.44
71807;BMP280;59655;42.590;23.364;2022-08-04T14:03:40;91777.00;;;28.51
71807;BMP280;59655;42.590;23.364;2022-08-04T14:06:13;91777.25;;;28.63
71807;BMP280;59655;42.590;23.364;2022-08-04T14:11:13;91779.19;;;28.22
71807;BMP280;59655;42.590;23.364;2022-08-04T14:13:38;91771.84;;;28.65
71807;BMP280;59655;42.590;23.364;2022-08-04T14:16:20;91765.88;;;28.75
71807;BMP280;59655;42.590;23.364;2022-08-04T14:18:46;91769.59;;;28.94
71807;BMP280;59655;42.590;23.364;2022-08-04T14:21:21;91763.78;;;29.14
71807;BMP280;59655;42.590;23.364;2022-08-04T14:23:51;91761.53;;;29.02
71807;BMP280;59655;42.590;23.364;2022-08-04T14:26:19;91757.03;;;29.19
71807;BMP280;59655;42.590;23.364;2022-08-04T14:28:45;91754.00;;;29.02
71807;BMP280;59655;42.590;23.364;2022-08-04T14:31:22;91757.50;;;29.05
71807;BMP280;59655;42.590;23.364;2022-08-04T14:33:49;91753.97;;;29.00
71807;BMP280;59655;42.590;23.364;2022-08-04T14:36:15;91754.66;;;29.01
71807;BMP280;59655;42.590;23.364;2022-08-04T14:38:57;91754.47;;;28.89
71807;BMP280;59655;42.590;23.364;2022-08-04T14:41:25;91753.81;;;28.90
71807;BMP280;59655;42.590;23.364;2022-08-04T14:43:56;91749.09;;;28.95
71807;BMP280;59655;42.590;23.364;2022-08-04T14:46:23;91753.25;;;28.96
71807;BMP280;59655;42.590;23.364;2022-08-04T14:49:07;91753.16;;;28.92
71807;BMP280;59655;42.590;23.364;2022-08-04T14:51:54;91754.47;;;29.29
71807;BMP280;59655;42.590;23.364;2022-08-04T14:54:28;91744.84;;;28.86
71807;BMP280;59655;42.590;23.364;2022-08-04T14:56:56;91753.69;;;28.82
71807;BMP280;59655;42.590;23.364;2022-08-04T14:59:23;91745.53;;;28.84
71807;BMP280;59655;42.590;23.364;2022-08-04T15:01:49;91753.88;;;28.94
71807;BMP280;59655;42.590;23.364;2022-08-04T15:04:15;91752.31;;;28.83
71807;BMP280;59655;42.590;23.364;2022-08-04T15:06:41;91753.06;;;28.88
71807;BMP280;59655;42.590;23.364;2022-08-04T15:09:08;91746.00;;;28.72
71807;BMP280;59655;42.590;23.364;2022-08-04T15:11:35;91741.16;;;29.09
71807;BMP280;59655;42.590;23.364;2022-08-04T15:14:01;91751.28;;;29.02
71807;BMP280;59655;42.590;23.364;2022-08-04T15:16:29;91744.31;;;28.93
71807;BMP280;59655;42.590;23.364;2022-08-04T15:18:55;91742.81;;;28.84
71807;BMP280;59655;42.590;23.364;2022-08-04T15:21:21;91740.44;;;28.68
71807;BMP280;59655;42.590;23.364;2022-08-04T15:23:50;91744.66;;;28.75
71807;BMP280;59655;42.590;23.364;2022-08-04T15:26:22;91739.03;;;28.65
71807;BMP280;59655;42.590;23.364;2022-08-04T15:28:53;91746.72;;;28.39
71807;BMP280;59655;42.590;23.364;2022-08-04T15:31:20;91732.09;;;28.24
71807;BMP280;59655;42.590;23.364;2022-08-04T15:33:49;91736.00;;;28.13
71807;BMP280;59655;42.590;23.364;2022-08-04T15:36:21;91742.16;;;27.81
71807;BMP280;59655;42.590;23.364;2022-08-04T15:39:21;91741.84;;;27.67
71807;BMP280;59655;42.590;23.364;2022-08-04T15:44:55;91742.38;;;27.29
71807;BMP280;59655;42.590;23.364;2022-08-04T15:47:24;91745.59;;;27.21
71807;BMP280;59655;42.590;23.364;2022-08-04T15:50:03;91749.41;;;27.10
71807;BMP280;59655;42.590;23.364;2022-08-04T15:52:28;91739.69;;;27.03
71807;BMP280;59655;42.590;23.364;2022-08-04T16:00:24;91747.16;;;26.48
71807;BMP280;59655;42.590;23.364;2022-08-04T16:02:49;91744.75;;;26.35
71807;BMP280;59655;42.590;23.364;2022-08-04T16:08:10;91746.25;;;26.40
71807;BMP280;59655;42.590;23.364;2022-08-04T16:10:38;91748.75;;;26.58
71807;BMP280;59655;42.590;23.364;2022-08-04T16:13:08;91746.94;;;26.66
71807;BMP280;59655;42.590;23.364;2022-08-04T16:18:18;91743.84;;;26.52
71807;BMP280;59655;42.590;23.364;2022-08-04T16:20:44;91743.38;;;26.60
71807;BMP280;59655;42.590;23.364;2022-08-04T16:26:03;91741.00;;;27.00
71807;BMP280;59655;42.590;23.364;2022-08-04T16:28:37;91742.38;;;27.01
71807;BMP280;59655;42.590;23.364;2022-08-04T16:31:06;91736.63;;;26.89
71807;BMP280;59655;42.590;23.364;2022-08-04T16:33:32;91739.75;;;27.05
71807;BMP280;59655;42.590;23.364;2022-08-04T16:35:59;91737.22;;;26.59
71807;BMP280;59655;42.590;23.364;2022-08-04T16:38:25;91739.09;;;26.79
71807;BMP280;59655;42.590;23.364;2022-08-04T16:40:55;91738.81;;;26.94
71807;BMP280;59655;42.590;23.364;2022-08-04T16:43:25;91734.38;;;26.81
71807;BMP280;59655;42.590;23.364;2022-08-04T16:45:52;91736.13;;;26.70
71807;BMP280;59655;42.590;23.364;2022-08-04T16:48:40;91742.72;;;26.61
71807;BMP280;59655;42.590;23.364;2022-08-04T16:53:41;91746.53;;;26.50
71807;BMP280;59655;42.590;23.364;2022-08-04T16:56:12;91739.09;;;26.53
71807;BMP280;59655;42.590;23.364;2022-08-04T16:58:44;91741.59;;;26.44
71807;BMP280;59655;42.590;23.364;2022-08-04T17:01:13;91740.03;;;26.37
71807;BMP280;59655;42.590;23.364;2022-08-04T17:03:49;91745.28;;;26.29
71807;BMP280;59655;42.590;23.364;2022-08-04T17:06:15;91742.44;;;26.25
71807;BMP280;59655;42.590;23.364;2022-08-04T17:08:42;91745.00;;;26.19
71807;BMP280;59655;42.590;23.364;2022-08-04T17:11:08;91754.34;;;26.14
71807;BMP280;59655;42.590;23.364;2022-08-04T17:16:01;91765.59;;;26.02
71807;BMP280;59655;42.590;23.364;2022-08-04T17:18:27;91758.63;;;25.97
71807;BMP280;59655;42.590;23.364;2022-08-04T17:20:56;91765.25;;;25.90
71807;BMP280;59655;42.590;23.364;2022-08-04T17:23:27;91764.25;;;25.79
71807;BMP280;59655;42.590;23.364;2022-08-04T17:25:59;91760.00;;;25.74
71807;BMP280;59655;42.590;23.364;2022-08-04T17:28:25;91768.59;;;25.66
71807;BMP280;59655;42.590;23.364;2022-08-04T17:30:53;91770.13;;;25.50
71807;BMP280;59655;42.590;23.364;2022-08-04T17:33:18;91773.06;;;25.56
71807;BMP280;59655;42.590;23.364;2022-08-04T17:35:45;91766.78;;;25.51
71807;BMP280;59655;42.590;23.364;2022-08-04T17:38:11;91772.47;;;25.37
71807;BMP280;59655;42.590;23.364;2022-08-04T17:43:15;91775.63;;;25.30
71807;BMP280;59655;42.590;23.364;2022-08-04T17:45:41;91778.19;;;25.26
71807;BMP280;59655;42.590;23.364;2022-08-04T17:48:16;91784.84;;;25.20
71807;BMP280;59655;42.590;23.364;2022-08-04T17:50:42;91788.88;;;25.19
71807;BMP280;59655;42.590;23.364;2022-08-04T17:53:07;91788.75;;;25.15
71807;BMP280;59655;42.590;23.364;2022-08-04T17:55:43;91780.53;;;25.13
71807;BMP280;59655;42.590;23.364;2022-08-04T17:58:19;91791.25;;;25.09
71807;BMP280;59655;42.590;23.364;2022-08-04T18:00:45;91794.56;;;25.06
71807;BMP280;59655;42.590;23.364;2022-08-04T18:03:28;91795.59;;;24.97
71807;BMP280;59655;42.590;23.364;2022-08-04T18:05:53;91791.69;;;24.82
71807;BMP280;59655;42.590;23.364;2022-08-04T18:08:25;91792.81;;;24.75
71807;BMP280;59655;42.590;23.364;2022-08-04T18:10:52;91795.88;;;24.65
71807;BMP280;59655;42.590;23.364;2022-08-04T18:13:18;91793.56;;;24.57